Airfield :
LOGIN :

Register | Disclaimer

   EN    FR    IT 

 










Legend :    VFR   Marginal VFR   IFR   Intensive IFR   Very Intensive IFR
Visi :
Ceiling :
>= 8 km
>= 3000ft
5 to 8 km
1000 to 3000 ft
1500m to 5 km
500 to 1000 ft
800 to 1500m
200 to 500 ft
< 800m
< 200 ft
Symbols :   Thunderstorms  Fog  Heavy snow  Heavy precipitations  Wind > 20 kt
SIGMETs :     Misc.  Thunderstorms  Icing  Turbulence  Mountain Waves  Volcanic Ashes







- Airport Elevation : 24 ft
- IATA code : IBZ


LEIB - Ibiza

CURRENT METAR :
  • 222130Z 19003KT 150V250 9999 BKN010 19/17 Q1017 NOSIG

EXPIRED METARs :
  • 222100Z 22004KT 190V250 9999 FEW009 SCT010 19/16 Q1016 NOSIG
  • 222030Z 22004KT 9999 SCT010 19/16 Q1016 NOSIG
  • 222000Z 22003KT 200V260 9999 SCT010 19/16 Q1016 NOSIG
  • 221930Z 23005KT 9999 FEW010 19/17 Q1015 NOSIG
  • 221900Z 23005KT 9999 FEW006 SCT010 19/16 Q1015 NOSIG

TAF AMD TAF LEIB
Valid from the 22 at 21:00 until the 23 at 21:00 UTC


222130Z 2221/2321 VRB04KT 9999 FEW020 TX23/2312Z TN15/2306Z
PROB40
TEMPO 2221/2306 BKN009
BECMG 2310/2312 10009KT
No reported NOTAMs for that airfield.



MET'MAP, your aeronautical weather chart ! - Copyright ORBIFLY December 2007 - Disclaimer

ORBIFLY MET'MAP TEAM :

Programming & Development : Alexandra Zaïnal
Concept & Development : Baudouin d'Aumeries
Co-Development & Prog : Marc-Olivier Méhu
Technical & hardware support : Manuel Goepfert

Contact : metmap@orbifly.com




SOURCES & CREDITS :

   NOAA